sensor_id;sensor_type;location;lat;lon;timestamp;temperature;humidity
34776;DHT22;20989;52.566;13.346;2023-03-13T00:02:24;19.80;44.40
34776;DHT22;20989;52.566;13.346;2023-03-13T00:05:25;19.80;44.40
34776;DHT22;20989;52.566;13.346;2023-03-13T00:08:28;19.80;44.40
34776;DHT22;20989;52.566;13.346;2023-03-13T00:11:29;19.80;44.50
34776;DHT22;20989;52.566;13.346;2023-03-13T00:14:30;19.80;44.50
34776;DHT22;20989;52.566;13.346;2023-03-13T00:17:31;19.80;44.50
34776;DHT22;20989;52.566;13.346;2023-03-13T00:20:32;19.80;44.60
34776;DHT22;20989;52.566;13.346;2023-03-13T00:23:35;19.80;44.80
34776;DHT22;20989;52.566;13.346;2023-03-13T00:26:37;19.80;44.60
34776;DHT22;20989;52.566;13.346;2023-03-13T00:29:38;19.80;44.50
34776;DHT22;20989;52.566;13.346;2023-03-13T00:32:43;19.80;44.50
34776;DHT22;20989;52.566;13.346;2023-03-13T00:35:45;19.80;44.50
34776;DHT22;20989;52.566;13.346;2023-03-13T00:38:46;19.80;44.80
34776;DHT22;20989;52.566;13.346;2023-03-13T00:41:47;19.80;44.60
34776;DHT22;20989;52.566;13.346;2023-03-13T00:44:48;19.70;44.40
34776;DHT22;20989;52.566;13.346;2023-03-13T00:47:49;19.80;44.60
34776;DHT22;20989;52.566;13.346;2023-03-13T00:50:49;19.80;44.60
34776;DHT22;20989;52.566;13.346;2023-03-13T00:53:50;19.80;44.60
34776;DHT22;20989;52.566;13.346;2023-03-13T00:56:51;19.70;44.50
34776;DHT22;20989;52.566;13.346;2023-03-13T00:59:52;19.70;44.60
34776;DHT22;20989;52.566;13.346;2023-03-13T01:02:52;19.70;44.60
34776;DHT22;20989;52.566;13.346;2023-03-13T01:06:01;19.70;44.70
34776;DHT22;20989;52.566;13.346;2023-03-13T01:09:03;19.70;44.60
34776;DHT22;20989;52.566;13.346;2023-03-13T01:12:05;19.70;44.60
34776;DHT22;20989;52.566;13.346;2023-03-13T01:15:06;19.70;44.70
34776;DHT22;20989;52.566;13.346;2023-03-13T01:18:07;19.70;44.90
34776;DHT22;20989;52.566;13.346;2023-03-13T01:21:07;19.70;44.70
34776;DHT22;20989;52.566;13.346;2023-03-13T01:24:09;19.70;44.70
34776;DHT22;20989;52.566;13.346;2023-03-13T01:27:10;19.70;44.80
34776;DHT22;20989;52.566;13.346;2023-03-13T01:30:11;19.70;44.90
34776;DHT22;20989;52.566;13.346;2023-03-13T01:33:12;19.70;44.90
34776;DHT22;20989;52.566;13.346;2023-03-13T01:36:13;19.70;44.80
34776;DHT22;20989;52.566;13.346;2023-03-13T01:39:14;19.70;44.80
34776;DHT22;20989;52.566;13.346;2023-03-13T01:42:15;19.70;45.10
34776;DHT22;20989;52.566;13.346;2023-03-13T01:49:07;19.70;44.80
34776;DHT22;20989;52.566;13.346;2023-03-13T01:52:22;19.70;44.90
34776;DHT22;20989;52.566;13.346;2023-03-13T01:55:24;19.70;44.90
34776;DHT22;20989;52.566;13.346;2023-03-13T01:58:25;19.60;44.80
34776;DHT22;20989;52.566;13.346;2023-03-13T02:01:28;19.70;45.00
34776;DHT22;20989;52.566;13.346;2023-03-13T02:04:34;19.70;44.80
34776;DHT22;20989;52.566;13.346;2023-03-13T02:07:42;19.60;44.70
34776;DHT22;20989;52.566;13.346;2023-03-13T02:10:47;19.70;45.00
34776;DHT22;20989;52.566;13.346;2023-03-13T02:13:49;19.60;44.80
34776;DHT22;20989;52.566;13.346;2023-03-13T02:16:52;19.70;44.90
34776;DHT22;20989;52.566;13.346;2023-03-13T02:19:54;19.70;44.90
34776;DHT22;20989;52.566;13.346;2023-03-13T02:26:06;19.60;44.90
34776;DHT22;20989;52.566;13.346;2023-03-13T02:29:08;19.60;45.10
34776;DHT22;20989;52.566;13.346;2023-03-13T02:32:17;19.60;44.80
34776;DHT22;20989;52.566;13.346;2023-03-13T02:35:20;19.60;44.80
34776;DHT22;20989;52.566;13.346;2023-03-13T02:38:26;19.60;45.00
34776;DHT22;20989;52.566;13.346;2023-03-13T02:41:28;19.60;45.10
34776;DHT22;20989;52.566;13.346;2023-03-13T02:44:30;19.60;44.90
34776;DHT22;20989;52.566;13.346;2023-03-13T02:47:31;19.60;44.90
34776;DHT22;20989;52.566;13.346;2023-03-13T02:50:33;19.60;44.90
34776;DHT22;20989;52.566;13.346;2023-03-13T02:53:36;19.60;45.20
34776;DHT22;20989;52.566;13.346;2023-03-13T02:56:39;19.60;45.00
34776;DHT22;20989;52.566;13.346;2023-03-13T02:59:41;19.60;45.00
34776;DHT22;20989;52.566;13.346;2023-03-13T03:02:43;19.60;45.20
34776;DHT22;20989;52.566;13.346;2023-03-13T03:05:44;19.60;45.20
34776;DHT22;20989;52.566;13.346;2023-03-13T03:08:44;19.60;45.00
34776;DHT22;20989;52.566;13.346;2023-03-13T03:11:45;19.60;45.10
34776;DHT22;20989;52.566;13.346;2023-03-13T03:14:46;19.60;45.20
34776;DHT22;20989;52.566;13.346;2023-03-13T03:17:47;19.60;45.20
34776;DHT22;20989;52.566;13.346;2023-03-13T03:20:48;19.60;45.10
34776;DHT22;20989;52.566;13.346;2023-03-13T03:23:49;19.60;44.90
34776;DHT22;20989;52.566;13.346;2023-03-13T03:26:50;19.60;45.00
34776;DHT22;20989;52.566;13.346;2023-03-13T03:29:51;19.50;44.90
34776;DHT22;20989;52.566;13.346;2023-03-13T03:32:52;19.50;45.10
34776;DHT22;20989;52.566;13.346;2023-03-13T03:35:58;19.50;45.10
34776;DHT22;20989;52.566;13.346;2023-03-13T03:38:59;19.50;45.00
34776;DHT22;20989;52.566;13.346;2023-03-13T03:42:02;19.50;44.90
34776;DHT22;20989;52.566;13.346;2023-03-13T03:45:04;19.50;45.10
34776;DHT22;20989;52.566;13.346;2023-03-13T03:48:05;19.50;45.20
34776;DHT22;20989;52.566;13.346;2023-03-13T03:51:06;19.50;44.90
34776;DHT22;20989;52.566;13.346;2023-03-13T03:54:06;19.50;45.30
34776;DHT22;20989;52.566;13.346;2023-03-13T03:57:07;19.50;45.10
34776;DHT22;20989;52.566;13.346;2023-03-13T04:00:09;19.50;45.20
34776;DHT22;20989;52.566;13.346;2023-03-13T04:03:12;19.50;45.20
34776;DHT22;20989;52.566;13.346;2023-03-13T04:06:13;19.50;45.00
34776;DHT22;20989;52.566;13.346;2023-03-13T04:09:13;19.50;45.00
34776;DHT22;20989;52.566;13.346;2023-03-13T04:12:14;19.50;45.20
34776;DHT22;20989;52.566;13.346;2023-03-13T04:15:15;19.50;45.30
34776;DHT22;20989;52.566;13.346;2023-03-13T04:18:17;19.50;45.20
34776;DHT22;20989;52.566;13.346;2023-03-13T04:21:19;19.50;45.10
34776;DHT22;20989;52.566;13.346;2023-03-13T04:24:19;19.50;45.30
34776;DHT22;20989;52.566;13.346;2023-03-13T04:27:20;19.50;45.20
34776;DHT22;20989;52.566;13.346;2023-03-13T04:30:21;19.50;45.30
34776;DHT22;20989;52.566;13.346;2023-03-13T04:33:23;19.50;45.00
34776;DHT22;20989;52.566;13.346;2023-03-13T04:36:24;19.40;45.10
34776;DHT22;20989;52.566;13.346;2023-03-13T04:39:24;19.50;45.20
34776;DHT22;20989;52.566;13.346;2023-03-13T04:42:25;19.50;45.10
34776;DHT22;20989;52.566;13.346;2023-03-13T04:45:26;19.50;45.40
34776;DHT22;20989;52.566;13.346;2023-03-13T04:48:27;19.50;45.10
34776;DHT22;20989;52.566;13.346;2023-03-13T04:51:28;19.50;45.20
34776;DHT22;20989;52.566;13.346;2023-03-13T04:54:29;19.50;45.30
34776;DHT22;20989;52.566;13.346;2023-03-13T04:57:30;19.40;45.10
34776;DHT22;20989;52.566;13.346;2023-03-13T05:00:39;19.40;45.20
34776;DHT22;20989;52.566;13.346;2023-03-13T05:03:40;19.50;45.20
34776;DHT22;20989;52.566;13.346;2023-03-13T05:06:41;19.40;45.10
34776;DHT22;20989;52.566;13.346;2023-03-13T05:09:42;19.50;45.30
34776;DHT22;20989;52.566;13.346;2023-03-13T05:12:42;19.50;45.20
34776;DHT22;20989;52.566;13.346;2023-03-13T05:15:43;19.40;45.10
34776;DHT22;20989;52.566;13.346;2023-03-13T05:18:44;19.50;45.30
34776;DHT22;20989;52.566;13.346;2023-03-13T05:21:45;19.40;45.10
34776;DHT22;20989;52.566;13.346;2023-03-13T05:24:46;19.40;45.20
34776;DHT22;20989;52.566;13.346;2023-03-13T05:27:47;19.40;45.20
34776;DHT22;20989;52.566;13.346;2023-03-13T05:30:48;19.50;45.40
34776;DHT22;20989;52.566;13.346;2023-03-13T05:33:49;19.40;45.20
34776;DHT22;20989;52.566;13.346;2023-03-13T05:36:49;19.40;45.40
34776;DHT22;20989;52.566;13.346;2023-03-13T05:39:50;19.40;45.20
34776;DHT22;20989;52.566;13.346;2023-03-13T05:42:50;19.40;45.10
34776;DHT22;20989;52.566;13.346;2023-03-13T05:45:51;19.40;45.30
34776;DHT22;20989;52.566;13.346;2023-03-13T05:48:52;19.40;45.50
34776;DHT22;20989;52.566;13.346;2023-03-13T05:51:52;19.40;45.20
34776;DHT22;20989;52.566;13.346;2023-03-13T05:54:53;19.40;45.20
34776;DHT22;20989;52.566;13.346;2023-03-13T05:57:54;19.40;45.40
34776;DHT22;20989;52.566;13.346;2023-03-13T06:00:54;19.40;45.40
34776;DHT22;20989;52.566;13.346;2023-03-13T06:03:55;19.40;45.20
34776;DHT22;20989;52.566;13.346;2023-03-13T06:06:56;19.40;45.30
34776;DHT22;20989;52.566;13.346;2023-03-13T06:09:56;19.40;45.00
34776;DHT22;20989;52.566;13.346;2023-03-13T06:12:57;19.50;45.00
34776;DHT22;20989;52.566;13.346;2023-03-13T06:15:58;19.60;45.00
34776;DHT22;20989;52.566;13.346;2023-03-13T06:19:00;19.70;45.10
34776;DHT22;20989;52.566;13.346;2023-03-13T06:22:01;19.80;45.30
34776;DHT22;20989;52.566;13.346;2023-03-13T06:25:02;20.10;44.60
34776;DHT22;20989;52.566;13.346;2023-03-13T06:28:03;20.20;45.10
34776;DHT22;20989;52.566;13.346;2023-03-13T06:31:05;20.40;44.60
34776;DHT22;20989;52.566;13.346;2023-03-13T06:34:08;20.50;44.50
34776;DHT22;20989;52.566;13.346;2023-03-13T06:37:10;20.60;44.60
34776;DHT22;20989;52.566;13.346;2023-03-13T06:40:11;20.60;44.60
34776;DHT22;20989;52.566;13.346;2023-03-13T06:43:12;20.70;44.30
34776;DHT22;20989;52.566;13.346;2023-03-13T06:46:18;20.70;44.40
34776;DHT22;20989;52.566;13.346;2023-03-13T06:49:20;20.80;44.40
34776;DHT22;20989;52.566;13.346;2023-03-13T06:52:23;20.90;44.30
34776;DHT22;20989;52.566;13.346;2023-03-13T06:55:24;20.80;44.10
34776;DHT22;20989;52.566;13.346;2023-03-13T06:58:26;20.90;44.50
34776;DHT22;20989;52.566;13.346;2023-03-13T07:01:28;20.90;44.40
34776;DHT22;20989;52.566;13.346;2023-03-13T07:04:28;20.90;44.00
34776;DHT22;20989;52.566;13.346;2023-03-13T07:07:29;20.90;44.20
34776;DHT22;20989;52.566;13.346;2023-03-13T07:10:32;20.90;44.10
34776;DHT22;20989;52.566;13.346;2023-03-13T07:13:33;20.90;44.10
34776;DHT22;20989;52.566;13.346;2023-03-13T07:16:34;21.00;44.10
34776;DHT22;20989;52.566;13.346;2023-03-13T07:19:34;20.90;44.00
34776;DHT22;20989;52.566;13.346;2023-03-13T07:22:36;21.00;43.90
34776;DHT22;20989;52.566;13.346;2023-03-13T07:25:37;21.00;43.90
34776;DHT22;20989;52.566;13.346;2023-03-13T07:28:37;21.00;44.40
34776;DHT22;20989;52.566;13.346;2023-03-13T07:31:38;21.00;43.90
34776;DHT22;20989;52.566;13.346;2023-03-13T07:34:39;21.00;43.90
34776;DHT22;20989;52.566;13.346;2023-03-13T07:37:40;21.00;43.80
34776;DHT22;20989;52.566;13.346;2023-03-13T07:40:47;21.10;43.80
34776;DHT22;20989;52.566;13.346;2023-03-13T07:43:48;21.10;43.80
34776;DHT22;20989;52.566;13.346;2023-03-13T07:46:48;21.20;43.70
34776;DHT22;20989;52.566;13.346;2023-03-13T07:49:49;21.20;43.80
34776;DHT22;20989;52.566;13.346;2023-03-13T07:52:50;21.20;43.80
34776;DHT22;20989;52.566;13.346;2023-03-13T07:55:57;21.10;43.70
34776;DHT22;20989;52.566;13.346;2023-03-13T07:58:58;21.20;43.60
34776;DHT22;20989;52.566;13.346;2023-03-13T08:01:59;21.20;43.60
34776;DHT22;20989;52.566;13.346;2023-03-13T08:05:00;21.20;43.70
34776;DHT22;20989;52.566;13.346;2023-03-13T08:08:00;21.20;43.50
34776;DHT22;20989;52.566;13.346;2023-03-13T08:11:09;21.30;43.60
34776;DHT22;20989;52.566;13.346;2023-03-13T08:14:10;21.30;43.60
34776;DHT22;20989;52.566;13.346;2023-03-13T08:17:11;21.30;43.50
34776;DHT22;20989;52.566;13.346;2023-03-13T08:20:12;21.30;43.70
34776;DHT22;20989;52.566;13.346;2023-03-13T08:23:13;21.30;43.70
34776;DHT22;20989;52.566;13.346;2023-03-13T08:26:16;21.30;43.60
34776;DHT22;20989;52.566;13.346;2023-03-13T08:29:16;21.30;43.60
34776;DHT22;20989;52.566;13.346;2023-03-13T08:32:17;21.30;43.50
34776;DHT22;20989;52.566;13.346;2023-03-13T08:35:18;21.40;43.60
34776;DHT22;20989;52.566;13.346;2023-03-13T08:38:18;21.30;43.50
34776;DHT22;20989;52.566;13.346;2023-03-13T08:41:21;21.40;43.60
34776;DHT22;20989;52.566;13.346;2023-03-13T08:44:22;21.30;43.60
34776;DHT22;20989;52.566;13.346;2023-03-13T08:47:23;21.40;43.60
34776;DHT22;20989;52.566;13.346;2023-03-13T08:50:23;21.40;43.60
34776;DHT22;20989;52.566;13.346;2023-03-13T08:53:24;21.40;43.60
34776;DHT22;20989;52.566;13.346;2023-03-13T08:56:27;21.40;43.60
34776;DHT22;20989;52.566;13.346;2023-03-13T08:59:29;21.40;43.60
34776;DHT22;20989;52.566;13.346;2023-03-13T09:02:30;21.40;43.50
34776;DHT22;20989;52.566;13.346;2023-03-13T09:05:31;21.50;43.60
34776;DHT22;20989;52.566;13.346;2023-03-13T09:08:32;21.40;43.70
34776;DHT22;20989;52.566;13.346;2023-03-13T09:11:33;21.20;43.90
34776;DHT22;20989;52.566;13.346;2023-03-13T09:14:35;20.90;44.40
34776;DHT22;20989;52.566;13.346;2023-03-13T09:17:36;21.10;44.60
34776;DHT22;20989;52.566;13.346;2023-03-13T09:20:37;21.30;44.50
34776;DHT22;20989;52.566;13.346;2023-03-13T09:23:38;21.50;44.40
34776;DHT22;20989;52.566;13.346;2023-03-13T09:26:38;21.50;44.00
34776;DHT22;20989;52.566;13.346;2023-03-13T09:29:39;21.50;44.30
34776;DHT22;20989;52.566;13.346;2023-03-13T09:32:43;21.60;44.40
34776;DHT22;20989;52.566;13.346;2023-03-13T09:35:44;21.70;44.40
34776;DHT22;20989;52.566;13.346;2023-03-13T09:38:54;21.70;43.70
34776;DHT22;20989;52.566;13.346;2023-03-13T09:42:20;21.60;44.00
34776;DHT22;20989;52.566;13.346;2023-03-13T09:45:35;21.60;44.10
34776;DHT22;20989;52.566;13.346;2023-03-13T09:48:44;21.70;44.20
34776;DHT22;20989;52.566;13.346;2023-03-13T09:51:50;21.70;44.50
34776;DHT22;20989;52.566;13.346;2023-03-13T09:55:13;21.80;44.30
34776;DHT22;20989;52.566;13.346;2023-03-13T09:58:20;21.90;44.00
34776;DHT22;20989;52.566;13.346;2023-03-13T10:01:27;21.90;43.80
34776;DHT22;20989;52.566;13.346;2023-03-13T10:04:34;21.90;44.10
34776;DHT22;20989;52.566;13.346;2023-03-13T10:07:37;21.90;44.20
34776;DHT22;20989;52.566;13.346;2023-03-13T10:10:46;21.90;44.00
34776;DHT22;20989;52.566;13.346;2023-03-13T10:14:05;21.60;43.70
34776;DHT22;20989;52.566;13.346;2023-03-13T10:17:35;21.60;44.10
34776;DHT22;20989;52.566;13.346;2023-03-13T10:20:36;21.70;44.00
34776;DHT22;20989;52.566;13.346;2023-03-13T10:27:13;21.90;43.80
34776;DHT22;20989;52.566;13.346;2023-03-13T10:30:35;21.90;44.00
34776;DHT22;20989;52.566;13.346;2023-03-13T10:33:39;21.90;44.40
34776;DHT22;20989;52.566;13.346;2023-03-13T10:37:00;22.00;44.40
34776;DHT22;20989;52.566;13.346;2023-03-13T10:40:25;21.90;44.10
34776;DHT22;20989;52.566;13.346;2023-03-13T10:43:28;22.00;44.40
34776;DHT22;20989;52.566;13.346;2023-03-13T10:46:32;22.00;44.10
34776;DHT22;20989;52.566;13.346;2023-03-13T10:49:33;22.10;44.40
34776;DHT22;20989;52.566;13.346;2023-03-13T10:52:47;22.00;44.00
34776;DHT22;20989;52.566;13.346;2023-03-13T10:55:48;22.10;43.90
34776;DHT22;20989;52.566;13.346;2023-03-13T10:58:51;22.00;43.70
34776;DHT22;20989;52.566;13.346;2023-03-13T11:01:57;22.10;43.80
34776;DHT22;20989;52.566;13.346;2023-03-13T11:04:58;22.10;43.90
34776;DHT22;20989;52.566;13.346;2023-03-13T11:08:18;22.10;44.10
34776;DHT22;20989;52.566;13.346;2023-03-13T11:11:19;22.10;44.10
34776;DHT22;20989;52.566;13.346;2023-03-13T11:14:22;22.10;43.90
34776;DHT22;20989;52.566;13.346;2023-03-13T11:17:43;22.10;43.90
34776;DHT22;20989;52.566;13.346;2023-03-13T11:20:45;22.10;44.00
34776;DHT22;20989;52.566;13.346;2023-03-13T11:23:52;22.10;44.00
34776;DHT22;20989;52.566;13.346;2023-03-13T11:27:23;22.10;43.80
34776;DHT22;20989;52.566;13.346;2023-03-13T11:37:23;22.00;43.90
34776;DHT22;20989;52.566;13.346;2023-03-13T11:40:29;21.90;44.10
34776;DHT22;20989;52.566;13.346;2023-03-13T11:43:34;21.90;44.40
34776;DHT22;20989;52.566;13.346;2023-03-13T11:56:29;21.90;44.00
34776;DHT22;20989;52.566;13.346;2023-03-13T11:59:39;21.90;44.00
34776;DHT22;20989;52.566;13.346;2023-03-13T12:02:56;21.90;44.10
34776;DHT22;20989;52.566;13.346;2023-03-13T12:05:59;21.90;44.40
34776;DHT22;20989;52.566;13.346;2023-03-13T12:09:17;21.90;44.20
34776;DHT22;20989;52.566;13.346;2023-03-13T12:15:43;21.80;44.10
34776;DHT22;20989;52.566;13.346;2023-03-13T12:18:45;21.80;44.70
34776;DHT22;20989;52.566;13.346;2023-03-13T12:21:52;21.80;44.90
34776;DHT22;20989;52.566;13.346;2023-03-13T12:25:04;21.90;44.60
34776;DHT22;20989;52.566;13.346;2023-03-13T12:31:36;22.10;44.10
34776;DHT22;20989;52.566;13.346;2023-03-13T12:38:28;22.20;44.20
34776;DHT22;20989;52.566;13.346;2023-03-13T12:41:41;22.20;44.10
34776;DHT22;20989;52.566;13.346;2023-03-13T12:44:42;22.30;44.10
34776;DHT22;20989;52.566;13.346;2023-03-13T12:48:21;22.20;44.10
34776;DHT22;20989;52.566;13.346;2023-03-13T12:51:58;22.30;44.00
34776;DHT22;20989;52.566;13.346;2023-03-13T13:01:33;22.20;44.30
34776;DHT22;20989;52.566;13.346;2023-03-13T13:04:42;22.20;44.60
34776;DHT22;20989;52.566;13.346;2023-03-13T13:07:54;22.20;44.30
34776;DHT22;20989;52.566;13.346;2023-03-13T13:21:18;22.30;44.70
34776;DHT22;20989;52.566;13.346;2023-03-13T13:24:55;22.40;44.40
34776;DHT22;20989;52.566;13.346;2023-03-13T13:35:00;22.40;44.50
34776;DHT22;20989;52.566;13.346;2023-03-13T13:38:31;22.40;44.40
34776;DHT22;20989;52.566;13.346;2023-03-13T13:41:36;22.40;44.60
34776;DHT22;20989;52.566;13.346;2023-03-13T13:51:19;22.20;44.60
34776;DHT22;20989;52.566;13.346;2023-03-13T13:54:33;22.00;45.00
34776;DHT22;20989;52.566;13.346;2023-03-13T13:58:20;21.90;45.30
34776;DHT22;20989;52.566;13.346;2023-03-13T14:01:22;21.80;45.40
34776;DHT22;20989;52.566;13.346;2023-03-13T14:04:40;22.00;45.90
34776;DHT22;20989;52.566;13.346;2023-03-13T14:11:18;22.00;45.60
34776;DHT22;20989;52.566;13.346;2023-03-13T14:14:21;21.80;46.80
34776;DHT22;20989;52.566;13.346;2023-03-13T14:17:22;21.90;46.30
34776;DHT22;20989;52.566;13.346;2023-03-13T14:20:37;21.90;46.40
34776;DHT22;20989;52.566;13.346;2023-03-13T14:23:41;21.90;46.70
34776;DHT22;20989;52.566;13.346;2023-03-13T14:26:43;21.90;46.90
34776;DHT22;20989;52.566;13.346;2023-03-13T14:30:14;21.90;46.10
34776;DHT22;20989;52.566;13.346;2023-03-13T14:33:15;21.90;45.90
34776;DHT22;20989;52.566;13.346;2023-03-13T14:36:16;21.90;45.90
34776;DHT22;20989;52.566;13.346;2023-03-13T14:42:42;21.90;45.90
34776;DHT22;20989;52.566;13.346;2023-03-13T14:45:45;21.90;46.90
34776;DHT22;20989;52.566;13.346;2023-03-13T14:48:46;21.90;46.70
34776;DHT22;20989;52.566;13.346;2023-03-13T14:55:00;21.80;46.40
34776;DHT22;20989;52.566;13.346;2023-03-13T14:58:05;21.90;46.50
34776;DHT22;20989;52.566;13.346;2023-03-13T15:01:26;21.90;46.00
34776;DHT22;20989;52.566;13.346;2023-03-13T15:04:59;21.90;45.80
34776;DHT22;20989;52.566;13.346;2023-03-13T15:08:00;21.90;45.90
34776;DHT22;20989;52.566;13.346;2023-03-13T15:11:02;22.00;46.00
34776;DHT22;20989;52.566;13.346;2023-03-13T15:14:03;21.90;46.90
34776;DHT22;20989;52.566;13.346;2023-03-13T15:17:22;21.90;46.60
34776;DHT22;20989;52.566;13.346;2023-03-13T15:20:23;21.90;46.60
34776;DHT22;20989;52.566;13.346;2023-03-13T15:23:24;21.90;46.70
34776;DHT22;20989;52.566;13.346;2023-03-13T15:26:26;21.90;46.30
34776;DHT22;20989;52.566;13.346;2023-03-13T15:29:27;21.80;46.50
34776;DHT22;20989;52.566;13.346;2023-03-13T15:32:34;21.70;46.60
34776;DHT22;20989;52.566;13.346;2023-03-13T15:35:36;21.90;46.10
34776;DHT22;20989;52.566;13.346;2023-03-13T15:38:37;22.10;45.80
34776;DHT22;20989;52.566;13.346;2023-03-13T15:41:37;22.10;45.60
34776;DHT22;20989;52.566;13.346;2023-03-13T15:44:38;22.30;45.50
34776;DHT22;20989;52.566;13.346;2023-03-13T15:47:39;22.20;45.40
34776;DHT22;20989;52.566;13.346;2023-03-13T15:50:40;22.30;45.30
34776;DHT22;20989;52.566;13.346;2023-03-13T15:53:41;22.40;45.30
34776;DHT22;20989;52.566;13.346;2023-03-13T15:56:42;22.40;45.20
34776;DHT22;20989;52.566;13.346;2023-03-13T15:59:43;22.40;45.20
34776;DHT22;20989;52.566;13.346;2023-03-13T16:02:44;22.40;45.10
34776;DHT22;20989;52.566;13.346;2023-03-13T16:05:48;22.50;45.20
34776;DHT22;20989;52.566;13.346;2023-03-13T16:08:48;22.50;45.10
34776;DHT22;20989;52.566;13.346;2023-03-13T16:11:50;22.50;45.00
34776;DHT22;20989;52.566;13.346;2023-03-13T16:14:50;22.50;45.00
34776;DHT22;20989;52.566;13.346;2023-03-13T16:17:51;22.60;45.90
34776;DHT22;20989;52.566;13.346;2023-03-13T16:20:52;22.60;45.10
34776;DHT22;20989;52.566;13.346;2023-03-13T16:23:53;22.50;45.00
34776;DHT22;20989;52.566;13.346;2023-03-13T16:26:54;22.50;45.00
34776;DHT22;20989;52.566;13.346;2023-03-13T16:29:55;22.60;45.10
34776;DHT22;20989;52.566;13.346;2023-03-13T16:32:56;22.60;45.00
34776;DHT22;20989;52.566;13.346;2023-03-13T16:35:58;22.50;45.80
34776;DHT22;20989;52.566;13.346;2023-03-13T16:39:04;22.60;45.20
34776;DHT22;20989;52.566;13.346;2023-03-13T16:42:05;22.70;44.90
34776;DHT22;20989;52.566;13.346;2023-03-13T16:45:07;22.80;45.10
34776;DHT22;20989;52.566;13.346;2023-03-13T16:48:15;22.80;44.90
34776;DHT22;20989;52.566;13.346;2023-03-13T16:51:20;22.80;45.00
34776;DHT22;20989;52.566;13.346;2023-03-13T16:54:21;22.80;44.70
34776;DHT22;20989;52.566;13.346;2023-03-13T16:57:23;22.80;45.00
34776;DHT22;20989;52.566;13.346;2023-03-13T17:00:27;22.80;44.90
34776;DHT22;20989;52.566;13.346;2023-03-13T17:03:28;22.90;45.00
34776;DHT22;20989;52.566;13.346;2023-03-13T17:06:32;22.80;44.80
34776;DHT22;20989;52.566;13.346;2023-03-13T17:09:33;22.90;45.10
34776;DHT22;20989;52.566;13.346;2023-03-13T17:12:34;22.90;45.20
34776;DHT22;20989;52.566;13.346;2023-03-13T17:15:35;22.80;45.10
34776;DHT22;20989;52.566;13.346;2023-03-13T17:18:35;22.80;44.80
34776;DHT22;20989;52.566;13.346;2023-03-13T17:21:36;22.80;44.80
34776;DHT22;20989;52.566;13.346;2023-03-13T17:24:37;22.80;44.90
34776;DHT22;20989;52.566;13.346;2023-03-13T17:27:39;22.70;45.80
34776;DHT22;20989;52.566;13.346;2023-03-13T17:30:40;22.80;45.90
34776;DHT22;20989;52.566;13.346;2023-03-13T17:33:40;22.80;45.00
34776;DHT22;20989;52.566;13.346;2023-03-13T17:36:41;22.80;45.00
34776;DHT22;20989;52.566;13.346;2023-03-13T17:39:43;22.70;45.00
34776;DHT22;20989;52.566;13.346;2023-03-13T17:42:44;22.70;45.10
34776;DHT22;20989;52.566;13.346;2023-03-13T17:45:45;22.70;45.20
34776;DHT22;20989;52.566;13.346;2023-03-13T17:48:47;22.70;45.10
34776;DHT22;20989;52.566;13.346;2023-03-13T17:51:48;22.70;45.20
34776;DHT22;20989;52.566;13.346;2023-03-13T17:54:50;22.70;45.20
34776;DHT22;20989;52.566;13.346;2023-03-13T17:57:51;22.70;45.20
34776;DHT22;20989;52.566;13.346;2023-03-13T18:00:52;22.60;45.20
34776;DHT22;20989;52.566;13.346;2023-03-13T18:03:54;22.60;45.30
34776;DHT22;20989;52.566;13.346;2023-03-13T18:06:54;22.60;45.30
34776;DHT22;20989;52.566;13.346;2023-03-13T18:09:55;22.60;45.40
34776;DHT22;20989;52.566;13.346;2023-03-13T18:12:56;22.50;45.30
34776;DHT22;20989;52.566;13.346;2023-03-13T18:15:56;22.50;45.40
34776;DHT22;20989;52.566;13.346;2023-03-13T18:18:57;22.50;45.40
34776;DHT22;20989;52.566;13.346;2023-03-13T18:21:58;22.50;45.40
34776;DHT22;20989;52.566;13.346;2023-03-13T18:24:58;22.50;45.50
34776;DHT22;20989;52.566;13.346;2023-03-13T18:27:59;22.50;45.50
34776;DHT22;20989;52.566;13.346;2023-03-13T18:31:00;22.40;45.50
34776;DHT22;20989;52.566;13.346;2023-03-13T18:34:02;22.50;45.70
34776;DHT22;20989;52.566;13.346;2023-03-13T18:37:10;22.40;45.60
34776;DHT22;20989;52.566;13.346;2023-03-13T18:40:18;22.30;45.70
34776;DHT22;20989;52.566;13.346;2023-03-13T18:43:19;22.30;45.80
34776;DHT22;20989;52.566;13.346;2023-03-13T18:46:21;22.20;45.80
34776;DHT22;20989;52.566;13.346;2023-03-13T18:49:22;22.20;45.90
34776;DHT22;20989;52.566;13.346;2023-03-13T18:52:24;22.10;45.90
34776;DHT22;20989;52.566;13.346;2023-03-13T18:55:27;22.10;45.90
34776;DHT22;20989;52.566;13.346;2023-03-13T18:58:28;22.00;45.90
34776;DHT22;20989;52.566;13.346;2023-03-13T19:01:30;22.00;46.00
34776;DHT22;20989;52.566;13.346;2023-03-13T19:04:31;22.00;45.90
34776;DHT22;20989;52.566;13.346;2023-03-13T19:07:31;22.00;46.00
34776;DHT22;20989;52.566;13.346;2023-03-13T19:10:32;22.00;46.00
34776;DHT22;20989;52.566;13.346;2023-03-13T19:13:33;21.90;45.90
34776;DHT22;20989;52.566;13.346;2023-03-13T19:16:44;21.90;46.00
34776;DHT22;20989;52.566;13.346;2023-03-13T19:19:46;21.90;46.00
34776;DHT22;20989;52.566;13.346;2023-03-13T19:22:47;21.90;46.00
34776;DHT22;20989;52.566;13.346;2023-03-13T19:25:49;21.90;46.00
34776;DHT22;20989;52.566;13.346;2023-03-13T19:28:52;21.90;46.10
34776;DHT22;20989;52.566;13.346;2023-03-13T19:31:53;21.80;46.00
34776;DHT22;20989;52.566;13.346;2023-03-13T19:34:54;21.80;46.00
34776;DHT22;20989;52.566;13.346;2023-03-13T19:37:54;21.80;46.10
34776;DHT22;20989;52.566;13.346;2023-03-13T19:40:55;21.80;46.10
34776;DHT22;20989;52.566;13.346;2023-03-13T19:43:56;21.70;46.00
34776;DHT22;20989;52.566;13.346;2023-03-13T19:46:56;21.80;46.10
34776;DHT22;20989;52.566;13.346;2023-03-13T19:49:57;21.80;46.10
34776;DHT22;20989;52.566;13.346;2023-03-13T19:52:58;21.70;46.10
34776;DHT22;20989;52.566;13.346;2023-03-13T19:55:58;21.70;46.10
34776;DHT22;20989;52.566;13.346;2023-03-13T19:59:18;21.70;46.10
34776;DHT22;20989;52.566;13.346;2023-03-13T20:02:19;21.70;46.10
34776;DHT22;20989;52.566;13.346;2023-03-13T20:05:20;21.70;46.10
34776;DHT22;20989;52.566;13.346;2023-03-13T20:08:21;21.60;46.10
34776;DHT22;20989;52.566;13.346;2023-03-13T20:11:23;21.60;46.10
34776;DHT22;20989;52.566;13.346;2023-03-13T20:14:24;21.60;46.20
34776;DHT22;20989;52.566;13.346;2023-03-13T20:17:26;21.60;46.20
34776;DHT22;20989;52.566;13.346;2023-03-13T20:20:26;21.60;46.20